createdAt,value
2022-09-07T00:05:00.538Z,3.60
2022-09-07T00:10:02.150Z,3.65
2022-09-07T00:15:10.101Z,4.55
2022-09-07T00:20:12.765Z,3.67
2022-09-07T00:25:14.311Z,3.00
2022-09-07T00:30:15.891Z,2.25
2022-09-07T00:35:17.385Z,2.25
2022-09-07T00:40:18.928Z,2.50
2022-09-07T00:45:21.558Z,2.90
2022-09-07T00:50:30.601Z,2.80
2022-09-07T00:55:33.635Z,2.33
2022-09-07T01:00:35.684Z,2.42
2022-09-07T01:05:53.666Z,2.40
2022-09-07T01:10:57.304Z,2.20
2022-09-07T01:16:10.504Z,1.67
2022-09-07T01:21:34.718Z,1.83
2022-09-07T01:26:58.939Z,1.60
2022-09-07T01:32:11.880Z,1.70
2022-09-07T01:37:32.389Z,2.00
2022-09-07T01:43:04.958Z,1.58
2022-09-07T01:48:10.870Z,1.55
2022-09-07T01:53:24.612Z,2.05
2022-09-07T01:58:39.833Z,1.70
2022-09-07T02:03:51.636Z,1.77
2022-09-07T02:09:01.022Z,1.58
2022-09-07T02:14:19.938Z,1.58
2022-09-07T02:19:25.068Z,1.42
2022-09-07T02:24:32.535Z,1.50
2022-09-07T02:29:34.104Z,1.60
2022-09-07T02:34:35.942Z,1.55
2022-09-07T02:39:38.462Z,1.50
2022-09-07T02:44:42.248Z,1.20
2022-09-07T02:50:17.923Z,1.30
2022-09-07T02:55:28.140Z,1.02
2022-09-07T03:00:34.693Z,1.05
2022-09-07T03:05:40.493Z,0.97
2022-09-07T03:10:43.491Z,1.25
2022-09-07T03:15:45.590Z,0.90
2022-09-07T03:20:47.204Z,1.15
2022-09-07T03:25:51.277Z,1.80
2022-09-07T03:30:52.810Z,2.13
2022-09-07T03:36:00.321Z,3.35
2022-09-07T03:41:03.988Z,2.17
2022-09-07T03:46:07.001Z,2.40
2022-09-07T03:51:10.605Z,2.47
2022-09-07T03:56:21.242Z,2.28
2022-09-07T04:01:25.225Z,2.30
2022-09-07T04:06:26.819Z,2.45
2022-09-07T04:11:28.309Z,2.10
2022-09-07T04:16:30.178Z,2.35
2022-09-07T04:21:33.095Z,2.13
2022-09-07T04:26:35.990Z,4.07
2022-09-07T04:31:37.656Z,3.53
2022-09-07T04:36:39.150Z,3.58
2022-09-07T04:41:40.681Z,3.35
2022-09-07T04:46:42.190Z,3.67
2022-09-07T04:51:44.349Z,3.15
2022-09-07T04:56:45.887Z,2.75
2022-09-07T05:01:47.425Z,2.53
2022-09-07T05:06:49.048Z,3.50
2022-09-07T05:11:50.858Z,1.85
2022-09-07T05:16:52.425Z,2.50
2022-09-07T05:21:53.962Z,2.25
2022-09-07T05:26:55.534Z,2.25
2022-09-07T05:31:57.419Z,2.90
2022-09-07T05:36:59.304Z,2.60
2022-09-07T05:42:00.891Z,2.55
2022-09-07T05:47:02.486Z,2.50
2022-09-07T05:52:04.093Z,2.10
2022-09-07T05:57:07.123Z,2.40
2022-09-07T06:02:14.755Z,3.03
2022-09-07T06:07:23.814Z,2.60
2022-09-07T06:12:25.351Z,2.47
2022-09-07T06:17:31.016Z,3.90
2022-09-07T06:22:38.191Z,3.00
2022-09-07T06:37:43.966Z,3.25
2022-09-07T06:42:45.492Z,2.35
2022-09-07T06:47:47.057Z,3.83
2022-09-07T06:58:10.015Z,2.28
2022-09-07T07:03:11.604Z,1.95
2022-09-07T07:08:13.201Z,2.03
2022-09-07T07:18:21.116Z,1.88
2022-09-07T07:23:22.929Z,1.80
2022-09-07T07:33:49.729Z,1.73
2022-09-07T07:39:00.898Z,1.77
2022-09-07T07:44:04.439Z,1.30
2022-09-07T07:49:05.960Z,1.50
2022-09-07T07:54:07.946Z,1.85
2022-09-07T07:59:12.603Z,1.90
2022-09-07T08:04:17.022Z,2.08
2022-09-07T08:09:18.464Z,2.10
2022-09-07T08:14:19.922Z,1.95
2022-09-07T08:19:21.386Z,2.00
2022-09-07T08:24:22.882Z,2.20
2022-09-07T08:29:24.245Z,1.90
2022-09-07T08:34:25.716Z,2.28
2022-09-07T08:39:27.225Z,2.30
2022-09-07T08:44:38.140Z,2.70
2022-09-07T08:49:53.766Z,2.33
2022-09-07T08:55:10.488Z,2.83
2022-09-07T09:00:15.659Z,2.45
2022-09-07T09:05:28.158Z,2.60
2022-09-07T09:10:48.373Z,2.38
2022-09-07T09:16:09.687Z,2.80
2022-09-07T09:21:17.004Z,2.83
2022-09-07T09:26:24.162Z,2.83
2022-09-07T09:31:34.166Z,2.70
2022-09-07T09:36:43.167Z,2.92
2022-09-07T09:41:44.621Z,3.47
2022-09-07T09:52:43.404Z,2.90
2022-09-07T10:08:37.095Z,3.15
2022-09-07T10:13:46.821Z,3.72
2022-09-07T10:18:57.639Z,3.38
2022-09-07T10:24:05.094Z,3.60
2022-09-07T10:29:16.500Z,3.08
2022-09-07T10:34:30.463Z,3.40
2022-09-07T10:39:36.999Z,2.90
2022-09-07T10:45:10.476Z,3.20
2022-09-07T10:50:26.367Z,3.20
2022-09-07T10:55:34.203Z,3.40
2022-09-07T11:00:55.885Z,2.40
2022-09-07T11:06:06.278Z,2.58
2022-09-07T11:17:01.090Z,2.75
2022-09-07T11:22:29.787Z,3.45
2022-09-07T11:27:39.263Z,4.13
2022-09-07T11:33:03.382Z,5.47
2022-09-07T11:38:32.974Z,6.35
2022-09-07T11:43:41.350Z,6.00
2022-09-07T11:48:55.282Z,7.22
2022-09-07T11:54:02.183Z,7.60
2022-09-07T11:59:39.908Z,8.30
2022-09-07T12:05:11.100Z,7.65
2022-09-07T12:10:48.100Z,8.07
2022-09-07T12:16:17.370Z,9.85
2022-09-07T12:21:51.207Z,11.10
2022-09-07T12:26:54.044Z,10.80
2022-09-07T12:31:59.806Z,11.65
2022-09-07T12:47:30.002Z,8.30
2022-09-07T12:52:45.702Z,7.40
2022-09-07T12:57:53.222Z,7.13
2022-09-07T13:09:14.921Z,6.25
2022-09-07T13:14:21.261Z,4.80
2022-09-07T13:19:50.701Z,4.55
2022-09-07T13:24:55.258Z,4.38
2022-09-07T13:30:04.937Z,2.35
2022-09-07T13:35:28.100Z,2.38
2022-09-07T13:40:40.243Z,1.80
2022-09-07T13:45:53.768Z,2.17
2022-09-07T13:51:13.518Z,2.00
2022-09-07T13:56:55.743Z,1.77
2022-09-07T14:01:58.368Z,1.85
2022-09-07T14:07:13.606Z,2.03
2022-09-07T14:12:21.019Z,1.60
2022-09-07T14:17:22.681Z,2.13
2022-09-07T14:22:31.343Z,2.75
2022-09-07T14:27:40.631Z,1.42
2022-09-07T14:32:43.082Z,1.70
2022-09-07T14:37:46.668Z,1.70
2022-09-07T14:42:54.218Z,1.92
2022-09-07T14:47:56.499Z,2.05
2022-09-07T14:58:23.668Z,1.20
2022-09-07T15:03:38.220Z,2.15
2022-09-07T15:08:45.478Z,1.65
2022-09-07T15:13:55.267Z,1.50
2022-09-07T15:19:16.902Z,1.08
2022-09-07T15:24:18.557Z,2.05
2022-09-07T15:29:21.902Z,1.80
2022-09-07T15:34:24.654Z,1.75
2022-09-07T15:39:29.624Z,1.65
2022-09-07T15:44:32.680Z,1.35
2022-09-07T15:49:34.856Z,1.33
2022-09-07T15:54:39.595Z,1.33
2022-09-07T15:59:41.461Z,1.45
2022-09-07T16:04:43.213Z,1.58
2022-09-07T16:09:45.241Z,1.38
2022-09-07T16:14:46.920Z,1.77
2022-09-07T16:19:48.370Z,1.60
2022-09-07T16:24:49.938Z,2.13
2022-09-07T16:29:51.726Z,1.90
2022-09-07T16:34:53.248Z,2.22
2022-09-07T16:39:54.806Z,1.50
2022-09-07T16:46:02.531Z,1.60
2022-09-07T16:50:17.883Z,1.70
2022-09-07T16:55:19.396Z,2.03
2022-09-07T17:00:20.898Z,1.58
2022-09-07T17:05:22.665Z,2.03
2022-09-07T17:10:24.466Z,1.73
2022-09-07T17:15:26.106Z,1.60
2022-09-07T17:20:28.254Z,2.38
2022-09-07T17:25:29.771Z,1.58
2022-09-07T17:30:32.997Z,2.05
2022-09-07T17:35:37.430Z,1.67
2022-09-07T17:40:39.095Z,2.03
2022-09-07T17:45:40.621Z,2.15
2022-09-07T17:50:42.580Z,2.00
2022-09-07T17:55:44.754Z,1.88
2022-09-07T18:00:46.251Z,2.10
2022-09-07T18:05:53.061Z,2.65
2022-09-07T18:16:19.623Z,3.50
2022-09-07T18:21:24.354Z,3.30
2022-09-07T18:26:26.366Z,3.65
2022-09-07T18:31:27.981Z,3.97
2022-09-07T18:36:29.953Z,5.43
2022-09-07T18:41:31.537Z,5.47
2022-09-07T18:46:33.067Z,5.70
2022-09-07T18:52:51.797Z,5.80
2022-09-07T18:56:58.201Z,5.95
2022-09-07T19:02:03.907Z,6.05
2022-09-07T19:07:07.126Z,6.15
2022-09-07T19:12:09.978Z,6.13
2022-09-07T19:17:11.862Z,5.68
2022-09-07T19:22:13.318Z,5.30
2022-09-07T19:27:14.872Z,5.90
2022-09-07T19:32:17.042Z,5.18
2022-09-07T19:37:18.553Z,5.40
2022-09-07T19:42:20.069Z,5.03
2022-09-07T19:47:23.170Z,4.43
2022-09-07T19:52:24.639Z,4.40
2022-09-07T19:57:26.364Z,3.88
2022-09-07T20:02:27.833Z,4.32
2022-09-07T20:07:29.335Z,4.22
2022-09-07T20:12:30.790Z,4.18
2022-09-07T20:17:35.344Z,5.28
2022-09-07T20:22:37.052Z,5.22
2022-09-07T20:27:38.523Z,5.07
2022-09-07T20:32:40.116Z,5.75
2022-09-07T20:37:41.557Z,5.18
2022-09-07T20:42:43.004Z,5.75
2022-09-07T20:47:44.696Z,7.25
2022-09-07T20:52:46.178Z,6.80
2022-09-07T20:57:47.659Z,8.20
2022-09-07T21:02:49.123Z,7.15
2022-09-07T21:07:50.570Z,7.15
2022-09-07T21:12:53.198Z,7.18
2022-09-07T21:17:54.663Z,7.38
2022-09-07T21:22:57.237Z,7.10
2022-09-07T21:27:58.670Z,7.10
2022-09-07T21:33:03.091Z,5.90
2022-09-07T21:38:04.826Z,5.35
2022-09-07T21:43:06.337Z,4.50
2022-09-07T21:48:07.810Z,5.43
2022-09-07T21:53:09.268Z,6.57
2022-09-07T21:58:10.708Z,6.13
2022-09-07T22:03:12.231Z,6.57
2022-09-07T22:08:17.207Z,7.22
2022-09-07T22:13:18.666Z,8.65
2022-09-07T22:18:20.142Z,9.77
2022-09-07T22:23:21.582Z,10.38
2022-09-07T22:28:23.044Z,12.27
2022-09-07T22:33:24.534Z,12.05
2022-09-07T22:38:27.579Z,13.88
2022-09-07T22:43:29.019Z,15.20
2022-09-07T22:48:31.060Z,15.35
2022-09-07T22:53:35.958Z,15.55
2022-09-07T22:58:38.406Z,17.38
2022-09-07T23:03:40.024Z,17.00
2022-09-07T23:08:42.308Z,15.45
2022-09-07T23:13:44.008Z,14.50
2022-09-07T23:18:45.622Z,15.05
2022-09-07T23:23:52.086Z,14.07
2022-09-07T23:28:58.587Z,11.90
2022-09-07T23:34:01.492Z,7.25
2022-09-07T23:39:03.758Z,6.85
2022-09-07T23:44:05.331Z,6.85
2022-09-07T23:49:06.798Z,7.50
2022-09-07T23:54:08.343Z,6.10
2022-09-07T23:59:09.990Z,5.72
